Epworth, Georgia
Current Conditions -  °F | °C
As of 11:35 AM on Monday 24 Nov 2014 (Local Time) from KRZR Reporting Station
Few Clouds Few Clouds  
Wind Chill: 68°   Ceiling: Unl
Heat Index: 68°   Visibility: 10mi
Dew Point: 52°   Wind: 15mph
Humidity: 56%   Direction: 200°SSW
Pressure: 29.76"   Gusts: 28mph
Location:  34.95°N, 84.38°W
Report Text: KRZR 241635Z AUTO 20013G24KT 10SM FEW040 20/11 A2976 RMK
Loading
Personal Weather Stations






























Interactive Weather Map New forecast layout! Learn more

10-Day Weather Forecast

Advertisements
Track Severe Weather on mobile